East Burke, VT

11:52 PM EDT on August 30, 2016 (GMT -0400)
East Burke, VT | | Change Station

Elev 1332 ft 44.57 °N, 71.93 °W | Updated 2 minutes ago

Overcast
Overcast
60.6 °F
Feels Like 60.6 °F
N
0.0
Wind Variable Wind from North
Gusts 0.0 mph

Today
High -- | Low -- °F
--% Chance of Precip.
Yesterday
High -- | Low -- °F
Precip. -- in
Pressure 30.05 in
Visibility 10.0 miles
Clouds Mostly Cloudy 4600 ft
Mostly Cloudy 5000 ft
Overcast 7500 ft
Dew Point 60 °F
Humidity 98%
Rainfall 0.00 in
Snow Depth Not available.
6:08 AM 7:26 PM
Waning Crescent, 2% visible
METAR KCDA 310335Z AUTO 00000KT 10SM BKN046 BKN050 OVC075 16/15 A3005 RMK AO2 T01600154
Pressure 30.05 in
Visibility 10.0 miles
Clouds Mostly Cloudy 4600 ft
Mostly Cloudy 5000 ft
Overcast 7500 ft
Dew Point 60 °F
Humidity 98%
Rainfall 0.00 in
Snow Depth Not available.
6:08 AM 7:26 PM
Waning Crescent, 2% visible
METAR KCDA 310335Z AUTO 00000KT 10SM BKN046 BKN050 OVC075 16/15 A3005 RMK AO2 T01600154

10-Day Weather Forecast

Almanac

Astronomy

Aug. 30, 2016 Rise Set
Actual Time
Civil Twilight
Nautical Twilight
Astronomical Twilight
Moon
Length of Visible Light
Length of Day
Tomorrow will be .
, % of the Moon is Illuminated

Today's Extremes

State Highs State Lows

Community

WunderPhotos

Upload Photos

1,936,021 photos uploaded!

WunderBlog® & News

Nearby

Air Quality

  Air Quality AQ Index Pollutant
Not available.

Snow Depth

Station Depth Elevation

Earthquake Activity

City Distance Mag. Time & Date
Minimum magnitude displayed is 2.5.

Coastal Water Temperatures

Place Temperature

Stations

Nearby Weather Stations

Station Location Temp. Windchill Dew Point Humidity Wind Precip. Elev Updated Type
                   

Watches & Warnings

There are currently no watches in effect.